Weather History for Hulett, WY

Change the Weather History Date:

Wednesday, December 18, 2013

  Actual Average (KEFC) Record (KEFC)
Temperature  
Mean Temperature 40 °F -  
Max Temperature 51 °F 38 °F 74 °F (1979)
Min Temperature 30 °F 10 °F -26 °F (1983)
Degree Days  
Heating Degree Days 24    
Moisture  
Dew Point 24 °F    
Average Humidity 53    
Maximum Humidity 86    
Minimum Humidity 32    
Precipitation  
Precipitation 0.00 in - - ()
Sea Level Pressure  
Sea Level Pressure 29.76 in    
Wind  
Wind Speed 10 mph (SSE)    
Max Wind Speed 15 mph    
Max Gust Speed 23 mph    
Visibility 10 miles    
Events      
Averages and records for this station are not official NWS values.
T = Trace of Precipitation, MM = Missing Value Source: NWS Daily Summary

Daily Weather History Graph

Daily Weather History Graph

Search for Another Location

Airport:

Trip Planner

Search our weather history database for the weather conditions in past years. The results will help you decide how hot, cold, wet, or windy it might be!

Date:

Astronomy

Dec. 18, 2013 Rise Set
Actual Time 7:30 AM MST 4:19 PM MST
Civil Twilight 6:57 AM MST 4:53 PM MST
Nautical Twilight 6:20 AM MST 5:30 PM MST
Astronomical Twilight 5:44 AM MST 6:05 PM MST
Moon 5:57 PM MST (12/18) 8:08 AM MST (12/18)
Length of Visible Light 9h 56m
Length of Day
8h 48m
Full, 98% of the Moon is Illuminated
Dec 18
Full
Dec 25
Last Quarter
Jan 1
New
Jan 7
First Quarter
Jan 15
Full

Hourly Weather History & Observations

Time (MST) Temp. Windchill Dew Point Humidity Pressure Visibility Wind Dir Wind Speed Gust Speed Precip Events Conditions
12:15 AM 44.6 °F 38.1 °F 23.0 °F 43% 29.83 in 10.0 mi SSW 13.8 mph - N/A   Clear
12:35 AM 44.6 °F 39.2 °F 24.8 °F 46% 29.82 in 10.0 mi SSW 10.4 mph - N/A   Clear
12:55 AM 44.6 °F 38.4 °F 23.0 °F 43% 29.82 in 10.0 mi SSW 12.7 mph - N/A   Clear
1:15 AM 44.6 °F 38.1 °F 23.0 °F 43% 29.80 in 10.0 mi SSW 13.8 mph 18.4 mph N/A   Clear
1:35 AM 44.6 °F 37.8 °F 23.0 °F 43% 29.80 in 10.0 mi SSW 15.0 mph - N/A   Clear
1:55 AM 44.6 °F 38.1 °F 24.8 °F 46% 29.80 in 10.0 mi SSW 13.8 mph - N/A   Clear
2:15 AM 42.8 °F 36.2 °F 24.8 °F 49% 29.80 in 10.0 mi SSW 12.7 mph - N/A   Clear
2:35 AM 42.8 °F 36.6 °F 24.8 °F 49% 29.79 in 10.0 mi SSW 11.5 mph - N/A   Clear
2:55 AM 42.8 °F 37.0 °F 24.8 °F 49% 29.79 in 10.0 mi SW 10.4 mph - N/A   Clear
3:15 AM 42.8 °F 35.8 °F 23.0 °F 46% 29.79 in 10.0 mi SW 13.8 mph - N/A   Clear
3:35 AM 41.0 °F 33.5 °F 23.0 °F 49% 29.78 in 10.0 mi SSW 13.8 mph - N/A   Clear
3:55 AM 42.8 °F 37.0 °F 23.0 °F 46% 29.78 in 10.0 mi SW 10.4 mph - N/A   Clear
4:15 AM 42.8 °F 37.0 °F 23.0 °F 46% 29.78 in 10.0 mi SW 10.4 mph - N/A   Clear
4:35 AM 41.0 °F 34.3 °F 23.0 °F 49% 29.77 in 10.0 mi SSW 11.5 mph - N/A   Clear
4:55 AM 41.0 °F 34.3 °F 23.0 °F 49% 29.76 in 10.0 mi SSW 11.5 mph - N/A   Clear
5:15 AM 37.4 °F 29.3 °F 23.0 °F 56% 29.75 in 10.0 mi SSW 12.7 mph - N/A   Clear
5:35 AM 39.2 °F 32.5 °F 23.0 °F 52% 29.75 in 10.0 mi SW 10.4 mph - N/A   Clear
5:55 AM 41.0 °F 34.7 °F 23.0 °F 49% 29.75 in 10.0 mi SW 10.4 mph - N/A   Clear
6:15 AM 41.0 °F 34.3 °F 23.0 °F 49% 29.75 in 10.0 mi SW 11.5 mph - N/A   Clear
6:35 AM 41.0 °F 34.7 °F 21.2 °F 45% 29.75 in 10.0 mi SW 10.4 mph - N/A   Clear
6:55 AM 39.2 °F 32.0 °F 23.0 °F 52% 29.74 in 10.0 mi SW 11.5 mph - N/A   Clear
7:15 AM 39.2 °F 32.0 °F 23.0 °F 52% 29.74 in 10.0 mi SW 11.5 mph - N/A   Clear
7:35 AM 41.0 °F 35.8 °F 23.0 °F 49% 29.75 in 10.0 mi SW 8.1 mph - N/A   Clear
7:55 AM 39.2 °F 32.5 °F 23.0 °F 52% 29.75 in 10.0 mi SW 10.4 mph - N/A   Clear
8:15 AM 33.8 °F 27.7 °F 23.0 °F 65% 29.76 in 10.0 mi WSW 6.9 mph - N/A   Clear
8:35 AM 37.4 °F 32.1 °F 23.0 °F 56% 29.76 in 10.0 mi West 6.9 mph - N/A   Clear
8:55 AM 41.0 °F 35.8 °F 23.0 °F 49% 29.77 in 10.0 mi WSW 8.1 mph - N/A   Clear
9:15 AM 41.0 °F 36.4 °F 24.8 °F 53% 29.77 in 10.0 mi SW 6.9 mph - N/A   Clear
9:35 AM 42.8 °F 41.1 °F 24.8 °F 49% 29.77 in 10.0 mi West 3.5 mph - N/A   Clear
9:55 AM 42.8 °F 38.0 °F 24.8 °F 49% 29.77 in 10.0 mi WSW 8.1 mph - N/A   Clear
10:15 AM 44.6 °F 41.4 °F 24.8 °F 46% 29.78 in 10.0 mi West 5.8 mph - N/A   Clear
10:35 AM 44.6 °F 43.1 °F 24.8 °F 46% 29.78 in 10.0 mi West 3.5 mph - N/A   Clear
10:55 AM 46.4 °F 43.5 °F 23.0 °F 40% 29.77 in 10.0 mi SW 5.8 mph - N/A   Clear
11:15 AM 48.2 °F - 23.0 °F 37% 29.77 in 10.0 mi WSW 5.8 mph - N/A   Clear
11:35 AM 50.0 °F - 23.0 °F 35% 29.77 in 10.0 mi West 3.5 mph - N/A   Clear
11:55 AM 50.0 °F - 23.0 °F 35% 29.75 in 10.0 mi WSW 3.5 mph - N/A   Clear
12:15 PM 50.0 °F - 23.0 °F 35% 29.75 in 10.0 mi SSW 4.6 mph - N/A   Clear
12:35 PM 50.0 °F - 23.0 °F 35% 29.75 in 10.0 mi Calm Calm - N/A   Clear
12:55 PM 51.8 °F - 23.0 °F 33% 29.75 in 10.0 mi North 3.5 mph - N/A   Clear
1:15 PM 50.0 °F - 21.2 °F 32% 29.74 in 10.0 mi North 6.9 mph - N/A   Clear
1:35 PM 50.0 °F - 21.2 °F 32% 29.74 in 10.0 mi NE 6.9 mph - N/A   Clear
1:55 PM 46.4 °F 42.4 °F 23.0 °F 40% 29.74 in 10.0 mi NE 8.1 mph - N/A   Clear
2:15 PM 46.4 °F 42.9 °F 23.0 °F 40% 29.74 in 10.0 mi NE 6.9 mph - N/A   Clear
2:35 PM 44.6 °F 40.2 °F 23.0 °F 43% 29.74 in 10.0 mi NNE 8.1 mph - N/A   Clear
2:55 PM 44.6 °F 40.7 °F 24.8 °F 46% 29.74 in 10.0 mi NE 6.9 mph - N/A   Clear
3:15 PM 42.8 °F 38.0 °F 23.0 °F 46% 29.75 in 10.0 mi NNE 8.1 mph - N/A   Clear
3:35 PM 42.8 °F 39.3 °F 24.8 °F 49% 29.75 in 10.0 mi NE 5.8 mph - N/A   Clear
3:55 PM 41.0 °F 38.0 °F 24.8 °F 53% 29.75 in 10.0 mi NE 4.6 mph - N/A   Clear
4:15 PM 39.2 °F 35.9 °F 24.8 °F 56% 29.76 in 10.0 mi East 4.6 mph - N/A   Clear
4:35 PM 39.2 °F 35.9 °F 24.8 °F 56% 29.76 in 10.0 mi East 4.6 mph - N/A   Clear
4:55 PM 35.6 °F 31.7 °F 24.8 °F 65% 29.77 in 10.0 mi East 4.6 mph - N/A   Clear
5:15 PM 35.6 °F 32.8 °F 26.6 °F 70% 29.77 in 10.0 mi East 3.5 mph - N/A   Clear
5:35 PM 35.6 °F 29.9 °F 24.8 °F 65% 29.77 in 10.0 mi ENE 6.9 mph - N/A   Clear
5:55 PM 35.6 °F 30.7 °F 24.8 °F 65% 29.77 in 10.0 mi ENE 5.8 mph - N/A   Clear
6:15 PM 35.6 °F 31.7 °F 24.8 °F 65% 29.76 in 10.0 mi ENE 4.6 mph - N/A   Clear
6:35 PM 33.8 °F 29.6 °F 24.8 °F 70% 29.76 in 10.0 mi NE 4.6 mph - N/A   Clear
6:55 PM 32.0 °F 25.6 °F 24.8 °F 75% 29.76 in 10.0 mi East 6.9 mph - N/A   Clear
7:15 PM 33.8 °F 27.7 °F 24.8 °F 70% 29.75 in 10.0 mi East 6.9 mph - N/A   Clear
7:35 PM 33.8 °F 28.6 °F 23.0 °F 65% 29.76 in 10.0 mi East 5.8 mph - N/A   Clear
7:55 PM 35.6 °F 28.6 °F 23.0 °F 60% 29.76 in 10.0 mi East 9.2 mph - N/A   Clear
8:15 PM 33.8 °F 27.7 °F 24.8 °F 70% 29.76 in 10.0 mi ENE 6.9 mph - N/A   Clear
8:35 PM 33.8 °F 26.4 °F 24.8 °F 70% 29.76 in 10.0 mi ENE 9.2 mph - N/A   Clear
8:55 PM 33.8 °F 26.4 °F 26.6 °F 75% 29.75 in 10.0 mi East 9.2 mph - N/A   Clear
9:15 PM - - - N/A% 29.75 in 10.0 mi ENE 5.8 mph - N/A   Clear
9:35 PM - - - N/A% 29.75 in 10.0 mi ENE 4.6 mph - N/A   Clear
9:55 PM - - - N/A% 29.75 in 10.0 mi East 4.6 mph - N/A   Clear
10:15 PM - - - N/A% 29.74 in 10.0 mi East 8.1 mph - N/A   Clear
10:35 PM 32.0 °F 25.6 °F 26.6 °F 80% 29.75 in 10.0 mi ENE 6.9 mph - N/A   Clear
10:55 PM 32.0 °F 24.8 °F 26.6 °F 80% 29.75 in 10.0 mi ENE 8.1 mph - N/A   Clear
11:15 PM 30.2 °F 25.4 °F 26.6 °F 86% 29.75 in 10.0 mi East 4.6 mph - N/A   Clear
11:35 PM 30.2 °F 19.8 °F 26.6 °F 86% 29.75 in 10.0 mi East 13.8 mph 19.6 mph N/A   Clear
11:55 PM 30.2 °F 19.3 °F 26.6 °F 86% 29.75 in 10.0 mi East 15.0 mph 23.0 mph N/A   Scattered Clouds